sensor_id;sensor_type;location;lat;lon;timestamp;P1;durP1;ratioP1;P2;durP2;ratioP2
36423;SDS011;22458;45.328;9.514;2023-04-22T00:01:37;7.95;;;6.30;;
36423;SDS011;22458;45.328;9.514;2023-04-22T00:04:03;8.45;;;6.50;;
36423;SDS011;22458;45.328;9.514;2023-04-22T00:06:29;9.85;;;6.75;;
36423;SDS011;22458;45.328;9.514;2023-04-22T00:08:56;7.32;;;6.63;;
36423;SDS011;22458;45.328;9.514;2023-04-22T00:11:21;7.85;;;6.97;;
36423;SDS011;22458;45.328;9.514;2023-04-22T00:13:47;10.00;;;7.53;;
36423;SDS011;22458;45.328;9.514;2023-04-22T00:16:13;10.18;;;7.22;;
36423;SDS011;22458;45.328;9.514;2023-04-22T00:18:39;8.55;;;7.15;;
36423;SDS011;22458;45.328;9.514;2023-04-22T00:21:05;11.13;;;8.07;;
36423;SDS011;22458;45.328;9.514;2023-04-22T00:23:31;8.70;;;7.20;;
36423;SDS011;22458;45.328;9.514;2023-04-22T00:25:57;8.40;;;7.15;;
36423;SDS011;22458;45.328;9.514;2023-04-22T00:28:23;8.93;;;7.18;;
36423;SDS011;22458;45.328;9.514;2023-04-22T00:30:49;7.07;;;6.28;;
36423;SDS011;22458;45.328;9.514;2023-04-22T00:33:15;8.20;;;6.68;;
36423;SDS011;22458;45.328;9.514;2023-04-22T00:35:41;8.20;;;6.57;;
36423;SDS011;22458;45.328;9.514;2023-04-22T00:38:07;8.82;;;6.28;;
36423;SDS011;22458;45.328;9.514;2023-04-22T00:40:32;6.18;;;5.47;;
36423;SDS011;22458;45.328;9.514;2023-04-22T00:42:58;12.63;;;7.55;;
36423;SDS011;22458;45.328;9.514;2023-04-22T00:45:25;7.70;;;5.70;;
36423;SDS011;22458;45.328;9.514;2023-04-22T00:47:50;7.32;;;6.60;;
36423;SDS011;22458;45.328;9.514;2023-04-22T00:50:17;7.30;;;6.53;;
36423;SDS011;22458;45.328;9.514;2023-04-22T00:52:43;7.57;;;6.25;;
36423;SDS011;22458;45.328;9.514;2023-04-22T00:55:09;7.30;;;6.07;;
36423;SDS011;22458;45.328;9.514;2023-04-22T00:57:35;6.28;;;5.60;;
36423;SDS011;22458;45.328;9.514;2023-04-22T01:00:02;8.05;;;5.97;;
36423;SDS011;22458;45.328;9.514;2023-04-22T01:02:29;8.10;;;6.18;;
36423;SDS011;22458;45.328;9.514;2023-04-22T01:04:56;7.95;;;6.32;;
36423;SDS011;22458;45.328;9.514;2023-04-22T01:07:23;6.20;;;5.60;;
36423;SDS011;22458;45.328;9.514;2023-04-22T01:09:49;7.47;;;6.28;;
36423;SDS011;22458;45.328;9.514;2023-04-22T01:12:15;7.65;;;6.13;;
36423;SDS011;22458;45.328;9.514;2023-04-22T01:14:41;7.45;;;5.75;;
36423;SDS011;22458;45.328;9.514;2023-04-22T01:17:07;7.75;;;5.82;;
36423;SDS011;22458;45.328;9.514;2023-04-22T01:19:35;7.35;;;6.18;;
36423;SDS011;22458;45.328;9.514;2023-04-22T01:22:01;6.93;;;6.05;;
36423;SDS011;22458;45.328;9.514;2023-04-22T01:24:28;6.72;;;5.55;;
36423;SDS011;22458;45.328;9.514;2023-04-22T01:26:53;7.60;;;5.80;;
36423;SDS011;22458;45.328;9.514;2023-04-22T01:29:19;7.82;;;5.85;;
36423;SDS011;22458;45.328;9.514;2023-04-22T01:31:45;6.43;;;5.47;;
36423;SDS011;22458;45.328;9.514;2023-04-22T01:34:11;5.78;;;5.18;;
36423;SDS011;22458;45.328;9.514;2023-04-22T01:36:37;8.23;;;5.50;;
36423;SDS011;22458;45.328;9.514;2023-04-22T01:39:03;6.78;;;5.50;;
36423;SDS011;22458;45.328;9.514;2023-04-22T01:41:29;7.13;;;5.65;;
36423;SDS011;22458;45.328;9.514;2023-04-22T01:43:56;6.15;;;5.53;;
36423;SDS011;22458;45.328;9.514;2023-04-22T01:46:24;7.63;;;6.70;;
36423;SDS011;22458;45.328;9.514;2023-04-22T01:48:50;9.43;;;6.22;;
36423;SDS011;22458;45.328;9.514;2023-04-22T01:51:16;6.43;;;5.60;;
36423;SDS011;22458;45.328;9.514;2023-04-22T01:53:44;6.77;;;5.10;;
36423;SDS011;22458;45.328;9.514;2023-04-22T01:56:10;7.70;;;5.38;;
36423;SDS011;22458;45.328;9.514;2023-04-22T01:58:37;7.05;;;5.60;;
36423;SDS011;22458;45.328;9.514;2023-04-22T02:01:03;8.80;;;6.20;;
36423;SDS011;22458;45.328;9.514;2023-04-22T02:03:30;6.63;;;5.85;;
36423;SDS011;22458;45.328;9.514;2023-04-22T02:05:56;7.93;;;5.97;;
36423;SDS011;22458;45.328;9.514;2023-04-22T02:08:22;6.75;;;5.97;;
36423;SDS011;22458;45.328;9.514;2023-04-22T02:10:47;8.63;;;6.05;;
36423;SDS011;22458;45.328;9.514;2023-04-22T02:13:13;6.85;;;6.03;;
36423;SDS011;22458;45.328;9.514;2023-04-22T02:15:39;7.43;;;6.32;;
36423;SDS011;22458;45.328;9.514;2023-04-22T02:18:05;7.43;;;5.70;;
36423;SDS011;22458;45.328;9.514;2023-04-22T02:20:32;7.22;;;6.15;;
36423;SDS011;22458;45.328;9.514;2023-04-22T02:22:58;7.57;;;5.70;;
36423;SDS011;22458;45.328;9.514;2023-04-22T02:25:24;8.13;;;5.75;;
36423;SDS011;22458;45.328;9.514;2023-04-22T02:27:51;6.05;;;5.45;;
36423;SDS011;22458;45.328;9.514;2023-04-22T02:30:17;6.80;;;6.10;;
36423;SDS011;22458;45.328;9.514;2023-04-22T02:32:43;6.57;;;5.30;;
36423;SDS011;22458;45.328;9.514;2023-04-22T02:35:09;8.05;;;5.47;;
36423;SDS011;22458;45.328;9.514;2023-04-22T02:37:35;7.45;;;5.68;;
36423;SDS011;22458;45.328;9.514;2023-04-22T02:40:02;7.28;;;6.28;;
36423;SDS011;22458;45.328;9.514;2023-04-22T02:42:29;7.57;;;5.60;;
36423;SDS011;22458;45.328;9.514;2023-04-22T02:44:55;7.28;;;5.85;;
36423;SDS011;22458;45.328;9.514;2023-04-22T02:47:21;9.40;;;6.32;;
36423;SDS011;22458;45.328;9.514;2023-04-22T02:49:47;7.03;;;5.70;;
36423;SDS011;22458;45.328;9.514;2023-04-22T02:52:13;6.30;;;5.63;;
36423;SDS011;22458;45.328;9.514;2023-04-22T02:54:39;8.13;;;5.07;;
36423;SDS011;22458;45.328;9.514;2023-04-22T02:57:05;6.13;;;5.03;;
36423;SDS011;22458;45.328;9.514;2023-04-22T02:59:31;6.13;;;5.22;;
36423;SDS011;22458;45.328;9.514;2023-04-22T03:01:57;8.13;;;5.55;;
36423;SDS011;22458;45.328;9.514;2023-04-22T03:04:53;7.45;;;5.60;;
36423;SDS011;22458;45.328;9.514;2023-04-22T03:07:20;6.05;;;4.95;;
36423;SDS011;22458;45.328;9.514;2023-04-22T03:09:46;6.55;;;5.30;;
36423;SDS011;22458;45.328;9.514;2023-04-22T03:12:12;6.03;;;5.07;;
36423;SDS011;22458;45.328;9.514;2023-04-22T03:14:37;8.07;;;5.10;;
36423;SDS011;22458;45.328;9.514;2023-04-22T03:17:03;6.65;;;5.40;;
36423;SDS011;22458;45.328;9.514;2023-04-22T03:19:29;6.57;;;5.28;;
36423;SDS011;22458;45.328;9.514;2023-04-22T03:21:55;5.72;;;4.72;;
36423;SDS011;22458;45.328;9.514;2023-04-22T03:24:22;6.05;;;5.22;;
36423;SDS011;22458;45.328;9.514;2023-04-22T03:26:50;5.60;;;4.57;;
36423;SDS011;22458;45.328;9.514;2023-04-22T03:29:17;5.85;;;4.80;;
36423;SDS011;22458;45.328;9.514;2023-04-22T03:31:42;5.55;;;4.53;;
36423;SDS011;22458;45.328;9.514;2023-04-22T03:34:08;7.68;;;4.85;;
36423;SDS011;22458;45.328;9.514;2023-04-22T03:36:35;5.38;;;4.60;;
36423;SDS011;22458;45.328;9.514;2023-04-22T03:39:01;7.10;;;5.35;;
36423;SDS011;22458;45.328;9.514;2023-04-22T03:41:28;6.22;;;5.07;;
36423;SDS011;22458;45.328;9.514;2023-04-22T03:43:54;6.80;;;4.85;;
36423;SDS011;22458;45.328;9.514;2023-04-22T03:46:20;7.45;;;5.13;;
36423;SDS011;22458;45.328;9.514;2023-04-22T03:48:55;6.05;;;5.00;;
36423;SDS011;22458;45.328;9.514;2023-04-22T03:51:25;5.45;;;4.45;;
36423;SDS011;22458;45.328;9.514;2023-04-22T03:53:52;7.60;;;6.45;;
36423;SDS011;22458;45.328;9.514;2023-04-22T03:56:20;6.20;;;5.20;;
36423;SDS011;22458;45.328;9.514;2023-04-22T03:58:47;6.35;;;5.63;;
36423;SDS011;22458;45.328;9.514;2023-04-22T04:01:14;7.07;;;5.32;;
36423;SDS011;22458;45.328;9.514;2023-04-22T04:06:11;7.00;;;5.10;;
36423;SDS011;22458;45.328;9.514;2023-04-22T04:08:36;7.47;;;5.25;;
36423;SDS011;22458;45.328;9.514;2023-04-22T04:11:02;8.48;;;6.75;;
36423;SDS011;22458;45.328;9.514;2023-04-22T04:13:29;8.07;;;5.90;;
36423;SDS011;22458;45.328;9.514;2023-04-22T04:16:16;9.13;;;6.47;;
36423;SDS011;22458;45.328;9.514;2023-04-22T04:18:45;5.67;;;4.63;;
36423;SDS011;22458;45.328;9.514;2023-04-22T04:21:15;7.80;;;5.15;;
36423;SDS011;22458;45.328;9.514;2023-04-22T04:23:46;6.53;;;4.72;;
36423;SDS011;22458;45.328;9.514;2023-04-22T04:26:12;6.03;;;4.55;;
36423;SDS011;22458;45.328;9.514;2023-04-22T04:28:42;7.90;;;5.93;;
36423;SDS011;22458;45.328;9.514;2023-04-22T04:31:11;7.20;;;6.50;;
36423;SDS011;22458;45.328;9.514;2023-04-22T04:33:37;6.85;;;6.15;;
36423;SDS011;22458;45.328;9.514;2023-04-22T04:36:03;7.63;;;6.32;;
36423;SDS011;22458;45.328;9.514;2023-04-22T04:38:32;5.38;;;4.88;;
36423;SDS011;22458;45.328;9.514;2023-04-22T04:40:58;6.68;;;5.03;;
36423;SDS011;22458;45.328;9.514;2023-04-22T04:43:25;5.53;;;4.80;;
36423;SDS011;22458;45.328;9.514;2023-04-22T04:46:07;6.18;;;4.88;;
36423;SDS011;22458;45.328;9.514;2023-04-22T04:48:35;6.97;;;4.57;;
36423;SDS011;22458;45.328;9.514;2023-04-22T04:51:05;9.98;;;5.43;;
36423;SDS011;22458;45.328;9.514;2023-04-22T04:53:36;5.63;;;4.57;;
36423;SDS011;22458;45.328;9.514;2023-04-22T04:56:02;4.95;;;4.45;;
36423;SDS011;22458;45.328;9.514;2023-04-22T04:58:28;6.72;;;5.05;;
36423;SDS011;22458;45.328;9.514;2023-04-22T05:01:15;6.72;;;4.40;;
36423;SDS011;22458;45.328;9.514;2023-04-22T05:03:43;5.28;;;4.40;;
36423;SDS011;22458;45.328;9.514;2023-04-22T05:06:11;5.63;;;4.72;;
36423;SDS011;22458;45.328;9.514;2023-04-22T05:08:40;5.32;;;4.28;;
36423;SDS011;22458;45.328;9.514;2023-04-22T05:11:09;5.30;;;4.80;;
36423;SDS011;22458;45.328;9.514;2023-04-22T05:13:35;5.20;;;4.57;;
36423;SDS011;22458;45.328;9.514;2023-04-22T05:16:01;5.88;;;4.97;;
36423;SDS011;22458;45.328;9.514;2023-04-22T05:18:28;5.57;;;4.60;;
36423;SDS011;22458;45.328;9.514;2023-04-22T05:20:57;6.72;;;4.50;;
36423;SDS011;22458;45.328;9.514;2023-04-22T05:23:24;6.50;;;4.75;;
36423;SDS011;22458;45.328;9.514;2023-04-22T05:25:53;6.85;;;5.00;;
36423;SDS011;22458;45.328;9.514;2023-04-22T05:28:19;6.57;;;5.57;;
36423;SDS011;22458;45.328;9.514;2023-04-22T05:30:50;5.50;;;4.63;;
36423;SDS011;22458;45.328;9.514;2023-04-22T05:33:15;6.43;;;5.00;;
36423;SDS011;22458;45.328;9.514;2023-04-22T05:35:42;6.78;;;5.05;;
36423;SDS011;22458;45.328;9.514;2023-04-22T05:38:08;6.35;;;4.43;;
36423;SDS011;22458;45.328;9.514;2023-04-22T05:40:37;6.63;;;4.88;;
36423;SDS011;22458;45.328;9.514;2023-04-22T05:43:04;5.82;;;4.30;;
36423;SDS011;22458;45.328;9.514;2023-04-22T05:45:31;6.88;;;4.75;;
36423;SDS011;22458;45.328;9.514;2023-04-22T05:47:57;7.05;;;4.75;;
36423;SDS011;22458;45.328;9.514;2023-04-22T05:50:25;6.85;;;4.80;;
36423;SDS011;22458;45.328;9.514;2023-04-22T05:52:58;5.53;;;4.90;;
36423;SDS011;22458;45.328;9.514;2023-04-22T05:55:23;7.72;;;5.13;;
36423;SDS011;22458;45.328;9.514;2023-04-22T05:57:49;5.53;;;4.63;;
36423;SDS011;22458;45.328;9.514;2023-04-22T06:00:35;5.43;;;4.35;;
36423;SDS011;22458;45.328;9.514;2023-04-22T06:03:19;6.32;;;4.43;;
36423;SDS011;22458;45.328;9.514;2023-04-22T06:05:45;6.68;;;4.88;;
36423;SDS011;22458;45.328;9.514;2023-04-22T06:08:11;6.20;;;5.25;;
36423;SDS011;22458;45.328;9.514;2023-04-22T06:10:37;5.78;;;4.20;;
36423;SDS011;22458;45.328;9.514;2023-04-22T06:13:02;5.78;;;4.68;;
36423;SDS011;22458;45.328;9.514;2023-04-22T06:15:28;7.95;;;5.30;;
36423;SDS011;22458;45.328;9.514;2023-04-22T06:17:55;5.15;;;4.65;;
36423;SDS011;22458;45.328;9.514;2023-04-22T06:20:20;6.05;;;4.43;;
36423;SDS011;22458;45.328;9.514;2023-04-22T06:22:46;6.90;;;5.10;;
36423;SDS011;22458;45.328;9.514;2023-04-22T06:25:12;6.18;;;4.60;;
36423;SDS011;22458;45.328;9.514;2023-04-22T06:27:38;7.63;;;4.90;;
36423;SDS011;22458;45.328;9.514;2023-04-22T06:30:04;4.90;;;3.90;;
36423;SDS011;22458;45.328;9.514;2023-04-22T06:32:30;4.82;;;4.03;;
36423;SDS011;22458;45.328;9.514;2023-04-22T06:34:56;8.40;;;4.38;;
36423;SDS011;22458;45.328;9.514;2023-04-22T06:37:22;5.05;;;4.32;;
36423;SDS011;22458;45.328;9.514;2023-04-22T06:39:48;4.80;;;4.15;;
36423;SDS011;22458;45.328;9.514;2023-04-22T06:42:40;7.55;;;4.22;;
36423;SDS011;22458;45.328;9.514;2023-04-22T06:45:24;6.05;;;4.28;;
36423;SDS011;22458;45.328;9.514;2023-04-22T06:48:03;4.60;;;4.10;;
36423;SDS011;22458;45.328;9.514;2023-04-22T06:50:43;4.47;;;4.05;;
36423;SDS011;22458;45.328;9.514;2023-04-22T06:53:09;5.35;;;4.30;;
36423;SDS011;22458;45.328;9.514;2023-04-22T06:55:35;5.10;;;4.20;;
36423;SDS011;22458;45.328;9.514;2023-04-22T06:58:01;5.72;;;4.40;;
36423;SDS011;22458;45.328;9.514;2023-04-22T07:00:27;4.85;;;4.25;;
36423;SDS011;22458;45.328;9.514;2023-04-22T07:02:53;4.82;;;4.32;;
36423;SDS011;22458;45.328;9.514;2023-04-22T07:05:19;5.57;;;4.28;;
36423;SDS011;22458;45.328;9.514;2023-04-22T07:07:45;4.60;;;3.95;;
36423;SDS011;22458;45.328;9.514;2023-04-22T07:10:16;9.35;;;4.38;;
36423;SDS011;22458;45.328;9.514;2023-04-22T07:13:00;5.57;;;4.13;;
36423;SDS011;22458;45.328;9.514;2023-04-22T07:15:25;6.75;;;4.60;;
36423;SDS011;22458;45.328;9.514;2023-04-22T07:17:51;5.93;;;4.53;;
36423;SDS011;22458;45.328;9.514;2023-04-22T07:20:17;5.60;;;4.78;;
36423;SDS011;22458;45.328;9.514;2023-04-22T07:22:43;5.72;;;4.70;;
36423;SDS011;22458;45.328;9.514;2023-04-22T07:25:08;4.93;;;4.18;;
36423;SDS011;22458;45.328;9.514;2023-04-22T07:27:34;7.28;;;4.60;;
36423;SDS011;22458;45.328;9.514;2023-04-22T07:30:01;4.95;;;4.45;;
36423;SDS011;22458;45.328;9.514;2023-04-22T07:32:27;8.15;;;4.30;;
36423;SDS011;22458;45.328;9.514;2023-04-22T07:34:53;5.38;;;4.13;;
36423;SDS011;22458;45.328;9.514;2023-04-22T07:37:20;5.70;;;4.18;;
36423;SDS011;22458;45.328;9.514;2023-04-22T07:39:46;6.53;;;3.85;;
36423;SDS011;22458;45.328;9.514;2023-04-22T07:42:11;4.43;;;3.50;;
36423;SDS011;22458;45.328;9.514;2023-04-22T07:44:37;3.92;;;3.53;;
36423;SDS011;22458;45.328;9.514;2023-04-22T07:47:03;4.07;;;3.50;;
36423;SDS011;22458;45.328;9.514;2023-04-22T07:49:29;5.70;;;3.33;;
36423;SDS011;22458;45.328;9.514;2023-04-22T07:51:55;4.10;;;3.63;;
36423;SDS011;22458;45.328;9.514;2023-04-22T07:54:21;4.63;;;3.08;;
36423;SDS011;22458;45.328;9.514;2023-04-22T07:56:46;4.57;;;3.13;;
36423;SDS011;22458;45.328;9.514;2023-04-22T07:59:12;3.47;;;3.03;;
36423;SDS011;22458;45.328;9.514;2023-04-22T08:01:38;3.53;;;3.10;;
36423;SDS011;22458;45.328;9.514;2023-04-22T08:04:04;3.15;;;2.85;;
36423;SDS011;22458;45.328;9.514;2023-04-22T08:06:29;4.22;;;3.60;;
36423;SDS011;22458;45.328;9.514;2023-04-22T08:08:56;4.55;;;3.75;;
36423;SDS011;22458;45.328;9.514;2023-04-22T08:11:21;4.45;;;3.92;;
36423;SDS011;22458;45.328;9.514;2023-04-22T08:13:47;4.10;;;3.35;;
36423;SDS011;22458;45.328;9.514;2023-04-22T08:16:13;4.78;;;3.30;;
36423;SDS011;22458;45.328;9.514;2023-04-22T08:18:39;5.20;;;3.60;;
36423;SDS011;22458;45.328;9.514;2023-04-22T08:21:05;3.25;;;2.88;;
36423;SDS011;22458;45.328;9.514;2023-04-22T08:23:30;4.45;;;3.55;;
36423;SDS011;22458;45.328;9.514;2023-04-22T08:25:56;4.22;;;3.35;;
36423;SDS011;22458;45.328;9.514;2023-04-22T08:28:22;5.70;;;3.47;;
36423;SDS011;22458;45.328;9.514;2023-04-22T08:30:48;5.05;;;3.65;;
36423;SDS011;22458;45.328;9.514;2023-04-22T08:33:14;4.50;;;4.05;;
36423;SDS011;22458;45.328;9.514;2023-04-22T08:35:40;5.68;;;4.53;;
36423;SDS011;22458;45.328;9.514;2023-04-22T08:38:06;4.45;;;3.78;;
36423;SDS011;22458;45.328;9.514;2023-04-22T08:40:33;6.63;;;3.97;;
36423;SDS011;22458;45.328;9.514;2023-04-22T08:42:59;5.15;;;4.00;;
36423;SDS011;22458;45.328;9.514;2023-04-22T08:45:26;6.25;;;3.80;;
36423;SDS011;22458;45.328;9.514;2023-04-22T08:47:52;4.60;;;3.85;;
36423;SDS011;22458;45.328;9.514;2023-04-22T08:50:21;4.90;;;4.40;;
36423;SDS011;22458;45.328;9.514;2023-04-22T08:52:47;5.47;;;3.95;;
36423;SDS011;22458;45.328;9.514;2023-04-22T08:55:13;4.65;;;4.10;;
36423;SDS011;22458;45.328;9.514;2023-04-22T08:57:39;6.13;;;4.05;;
36423;SDS011;22458;45.328;9.514;2023-04-22T09:00:05;5.93;;;4.30;;
36423;SDS011;22458;45.328;9.514;2023-04-22T09:02:32;6.55;;;4.18;;
36423;SDS011;22458;45.328;9.514;2023-04-22T09:05:01;5.78;;;4.47;;
36423;SDS011;22458;45.328;9.514;2023-04-22T09:07:31;4.57;;;3.97;;
36423;SDS011;22458;45.328;9.514;2023-04-22T09:09:57;5.50;;;4.55;;
36423;SDS011;22458;45.328;9.514;2023-04-22T09:12:23;4.18;;;3.63;;
36423;SDS011;22458;45.328;9.514;2023-04-22T09:14:50;5.40;;;4.10;;
36423;SDS011;22458;45.328;9.514;2023-04-22T09:17:16;6.53;;;4.32;;
36423;SDS011;22458;45.328;9.514;2023-04-22T09:19:57;5.90;;;4.75;;
36423;SDS011;22458;45.328;9.514;2023-04-22T09:22:25;5.43;;;4.32;;
36423;SDS011;22458;45.328;9.514;2023-04-22T09:25:03;8.48;;;4.70;;
36423;SDS011;22458;45.328;9.514;2023-04-22T09:27:29;4.95;;;4.45;;
36423;SDS011;22458;45.328;9.514;2023-04-22T09:29:54;5.97;;;4.47;;
36423;SDS011;22458;45.328;9.514;2023-04-22T09:32:23;5.15;;;4.03;;
36423;SDS011;22458;45.328;9.514;2023-04-22T09:34:50;6.40;;;5.10;;
36423;SDS011;22458;45.328;9.514;2023-04-22T09:37:18;7.63;;;5.07;;
36423;SDS011;22458;45.328;9.514;2023-04-22T09:39:48;5.38;;;4.38;;
36423;SDS011;22458;45.328;9.514;2023-04-22T09:42:18;5.63;;;4.72;;
36423;SDS011;22458;45.328;9.514;2023-04-22T09:44:46;5.15;;;4.63;;
36423;SDS011;22458;45.328;9.514;2023-04-22T09:47:18;6.70;;;4.20;;
36423;SDS011;22458;45.328;9.514;2023-04-22T09:49:47;4.43;;;3.80;;
36423;SDS011;22458;45.328;9.514;2023-04-22T09:52:23;5.35;;;4.13;;
36423;SDS011;22458;45.328;9.514;2023-04-22T09:54:51;4.75;;;4.28;;
36423;SDS011;22458;45.328;9.514;2023-04-22T09:57:18;6.10;;;4.50;;
36423;SDS011;22458;45.328;9.514;2023-04-22T09:59:45;5.38;;;4.38;;
36423;SDS011;22458;45.328;9.514;2023-04-22T10:02:11;6.88;;;4.53;;
36423;SDS011;22458;45.328;9.514;2023-04-22T10:04:37;6.75;;;4.38;;
36423;SDS011;22458;45.328;9.514;2023-04-22T10:07:02;4.72;;;4.30;;
36423;SDS011;22458;45.328;9.514;2023-04-22T10:09:28;6.35;;;5.25;;
36423;SDS011;22458;45.328;9.514;2023-04-22T10:11:55;6.55;;;5.00;;
36423;SDS011;22458;45.328;9.514;2023-04-22T10:14:25;5.45;;;4.47;;
36423;SDS011;22458;45.328;9.514;2023-04-22T10:16:58;6.25;;;4.95;;
36423;SDS011;22458;45.328;9.514;2023-04-22T10:19:26;6.35;;;5.18;;
36423;SDS011;22458;45.328;9.514;2023-04-22T10:21:56;6.03;;;5.32;;
36423;SDS011;22458;45.328;9.514;2023-04-22T10:24:25;6.75;;;5.18;;
36423;SDS011;22458;45.328;9.514;2023-04-22T10:26:56;6.93;;;5.40;;
36423;SDS011;22458;45.328;9.514;2023-04-22T10:29:24;6.18;;;5.57;;
36423;SDS011;22458;45.328;9.514;2023-04-22T10:32:04;5.60;;;4.70;;
36423;SDS011;22458;45.328;9.514;2023-04-22T10:35:05;7.82;;;5.47;;
36423;SDS011;22458;45.328;9.514;2023-04-22T10:37:33;7.43;;;5.75;;
36423;SDS011;22458;45.328;9.514;2023-04-22T10:40:13;12.63;;;6.50;;
36423;SDS011;22458;45.328;9.514;2023-04-22T10:42:41;7.25;;;5.43;;
36423;SDS011;22458;45.328;9.514;2023-04-22T10:45:12;6.82;;;5.60;;
36423;SDS011;22458;45.328;9.514;2023-04-22T10:47:39;7.40;;;6.57;;
36423;SDS011;22458;45.328;9.514;2023-04-22T10:50:25;7.43;;;6.38;;
36423;SDS011;22458;45.328;9.514;2023-04-22T10:55:22;9.40;;;6.95;;
36423;SDS011;22458;45.328;9.514;2023-04-22T10:57:49;9.15;;;7.00;;
36423;SDS011;22458;45.328;9.514;2023-04-22T11:00:17;7.57;;;6.78;;
36423;SDS011;22458;45.328;9.514;2023-04-22T11:02:44;9.55;;;7.30;;
36423;SDS011;22458;45.328;9.514;2023-04-22T11:05:17;7.57;;;6.60;;
36423;SDS011;22458;45.328;9.514;2023-04-22T11:07:45;7.40;;;6.22;;
36423;SDS011;22458;45.328;9.514;2023-04-22T11:10:12;8.73;;;6.40;;
36423;SDS011;22458;45.328;9.514;2023-04-22T11:12:54;7.15;;;5.75;;
36423;SDS011;22458;45.328;9.514;2023-04-22T11:15:21;8.60;;;6.03;;
36423;SDS011;22458;45.328;9.514;2023-04-22T11:17:49;7.90;;;6.20;;
36423;SDS011;22458;45.328;9.514;2023-04-22T11:20:16;9.07;;;6.68;;
36423;SDS011;22458;45.328;9.514;2023-04-22T11:22:47;9.43;;;6.30;;
36423;SDS011;22458;45.328;9.514;2023-04-22T11:25:16;7.88;;;6.90;;
36423;SDS011;22458;45.328;9.514;2023-04-22T11:27:42;8.15;;;6.70;;
36423;SDS011;22458;45.328;9.514;2023-04-22T11:30:09;7.07;;;6.38;;
36423;SDS011;22458;45.328;9.514;2023-04-22T11:32:40;8.65;;;7.75;;
36423;SDS011;22458;45.328;9.514;2023-04-22T11:35:11;8.23;;;6.40;;
36423;SDS011;22458;45.328;9.514;2023-04-22T11:37:42;7.00;;;5.57;;
36423;SDS011;22458;45.328;9.514;2023-04-22T11:40:16;9.93;;;7.00;;
36423;SDS011;22458;45.328;9.514;2023-04-22T11:42:43;8.90;;;7.30;;
36423;SDS011;22458;45.328;9.514;2023-04-22T11:45:10;8.55;;;7.07;;
36423;SDS011;22458;45.328;9.514;2023-04-22T11:47:37;9.52;;;7.40;;
36423;SDS011;22458;45.328;9.514;2023-04-22T11:50:05;8.85;;;6.90;;
36423;SDS011;22458;45.328;9.514;2023-04-22T11:55:11;7.35;;;6.55;;
36423;SDS011;22458;45.328;9.514;2023-04-22T11:57:41;9.10;;;7.65;;
36423;SDS011;22458;45.328;9.514;2023-04-22T12:00:13;8.05;;;6.68;;
36423;SDS011;22458;45.328;9.514;2023-04-22T12:02:41;8.68;;;6.68;;
36423;SDS011;22458;45.328;9.514;2023-04-22T12:05:09;8.77;;;7.45;;
36423;SDS011;22458;45.328;9.514;2023-04-22T12:07:38;8.05;;;7.00;;
36423;SDS011;22458;45.328;9.514;2023-04-22T12:10:06;8.27;;;7.00;;
36423;SDS011;22458;45.328;9.514;2023-04-22T12:12:33;9.32;;;7.93;;
36423;SDS011;22458;45.328;9.514;2023-04-22T12:15:10;7.53;;;6.82;;
36423;SDS011;22458;45.328;9.514;2023-04-22T12:17:36;9.00;;;7.22;;
36423;SDS011;22458;45.328;9.514;2023-04-22T12:20:02;6.78;;;5.78;;
36423;SDS011;22458;45.328;9.514;2023-04-22T12:22:29;8.80;;;6.40;;
36423;SDS011;22458;45.328;9.514;2023-04-22T12:24:58;8.57;;;6.35;;
36423;SDS011;22458;45.328;9.514;2023-04-22T12:27:25;8.40;;;6.57;;
36423;SDS011;22458;45.328;9.514;2023-04-22T12:29:53;7.45;;;6.65;;
36423;SDS011;22458;45.328;9.514;2023-04-22T12:32:20;7.55;;;6.75;;
36423;SDS011;22458;45.328;9.514;2023-04-22T12:34:47;6.72;;;5.55;;
36423;SDS011;22458;45.328;9.514;2023-04-22T12:37:13;6.85;;;5.32;;
36423;SDS011;22458;45.328;9.514;2023-04-22T12:39:40;7.45;;;6.63;;
36423;SDS011;22458;45.328;9.514;2023-04-22T12:42:05;7.55;;;6.80;;
36423;SDS011;22458;45.328;9.514;2023-04-22T12:44:32;7.15;;;6.45;;
36423;SDS011;22458;45.328;9.514;2023-04-22T12:46:57;6.53;;;5.85;;
36423;SDS011;22458;45.328;9.514;2023-04-22T12:49:23;6.95;;;5.68;;
36423;SDS011;22458;45.328;9.514;2023-04-22T12:51:49;7.60;;;6.20;;
36423;SDS011;22458;45.328;9.514;2023-04-22T12:54:18;6.90;;;6.18;;
36423;SDS011;22458;45.328;9.514;2023-04-22T12:56:44;7.38;;;6.68;;
36423;SDS011;22458;45.328;9.514;2023-04-22T12:59:11;6.70;;;5.68;;
36423;SDS011;22458;45.328;9.514;2023-04-22T13:01:37;8.52;;;6.45;;
36423;SDS011;22458;45.328;9.514;2023-04-22T13:04:03;5.18;;;4.20;;
36423;SDS011;22458;45.328;9.514;2023-04-22T13:06:29;5.97;;;3.85;;
36423;SDS011;22458;45.328;9.514;2023-04-22T13:08:56;4.15;;;3.50;;
36423;SDS011;22458;45.328;9.514;2023-04-22T13:11:22;5.28;;;4.75;;
36423;SDS011;22458;45.328;9.514;2023-04-22T13:13:49;5.10;;;4.32;;
36423;SDS011;22458;45.328;9.514;2023-04-22T13:16:15;6.03;;;4.70;;
36423;SDS011;22458;45.328;9.514;2023-04-22T13:18:41;7.28;;;4.30;;
36423;SDS011;22458;45.328;9.514;2023-04-22T13:21:07;5.30;;;4.40;;
36423;SDS011;22458;45.328;9.514;2023-04-22T13:23:33;5.05;;;4.55;;
36423;SDS011;22458;45.328;9.514;2023-04-22T13:25:59;5.60;;;4.70;;
36423;SDS011;22458;45.328;9.514;2023-04-22T13:28:26;4.72;;;4.25;;
36423;SDS011;22458;45.328;9.514;2023-04-22T13:30:53;6.28;;;4.30;;
36423;SDS011;22458;45.328;9.514;2023-04-22T13:33:19;5.03;;;4.10;;
36423;SDS011;22458;45.328;9.514;2023-04-22T13:35:45;4.10;;;3.70;;
36423;SDS011;22458;45.328;9.514;2023-04-22T13:38:12;5.07;;;4.40;;
36423;SDS011;22458;45.328;9.514;2023-04-22T13:40:38;4.85;;;4.32;;
36423;SDS011;22458;45.328;9.514;2023-04-22T13:43:03;5.25;;;4.00;;
36423;SDS011;22458;45.328;9.514;2023-04-22T13:45:29;6.78;;;4.93;;
36423;SDS011;22458;45.328;9.514;2023-04-22T13:47:55;7.57;;;4.63;;
36423;SDS011;22458;45.328;9.514;2023-04-22T13:50:21;5.43;;;4.45;;
36423;SDS011;22458;45.328;9.514;2023-04-22T13:52:48;4.68;;;4.18;;
36423;SDS011;22458;45.328;9.514;2023-04-22T13:55:14;5.60;;;4.63;;
36423;SDS011;22458;45.328;9.514;2023-04-22T13:57:39;5.00;;;4.30;;
36423;SDS011;22458;45.328;9.514;2023-04-22T14:00:05;5.35;;;4.78;;
36423;SDS011;22458;45.328;9.514;2023-04-22T14:02:36;4.80;;;4.30;;
36423;SDS011;22458;45.328;9.514;2023-04-22T14:05:02;6.53;;;3.90;;
36423;SDS011;22458;45.328;9.514;2023-04-22T14:07:29;5.15;;;4.40;;
36423;SDS011;22458;45.328;9.514;2023-04-22T14:09:55;5.78;;;5.00;;
36423;SDS011;22458;45.328;9.514;2023-04-22T14:12:21;4.53;;;3.85;;
36423;SDS011;22458;45.328;9.514;2023-04-22T14:14:47;4.22;;;3.70;;
36423;SDS011;22458;45.328;9.514;2023-04-22T14:17:12;4.10;;;3.70;;
36423;SDS011;22458;45.328;9.514;2023-04-22T14:19:38;5.50;;;3.95;;
36423;SDS011;22458;45.328;9.514;2023-04-22T14:22:04;5.10;;;3.85;;
36423;SDS011;22458;45.328;9.514;2023-04-22T14:24:30;6.97;;;4.70;;
36423;SDS011;22458;45.328;9.514;2023-04-22T14:26:57;4.75;;;4.03;;
36423;SDS011;22458;45.328;9.514;2023-04-22T14:31:53;4.85;;;3.65;;
36423;SDS011;22458;45.328;9.514;2023-04-22T14:34:20;4.10;;;2.97;;
36423;SDS011;22458;45.328;9.514;2023-04-22T14:36:46;3.33;;;2.85;;
36423;SDS011;22458;45.328;9.514;2023-04-22T14:39:12;3.38;;;2.75;;
36423;SDS011;22458;45.328;9.514;2023-04-22T14:41:37;4.70;;;3.50;;
36423;SDS011;22458;45.328;9.514;2023-04-22T14:44:03;3.72;;;3.10;;
36423;SDS011;22458;45.328;9.514;2023-04-22T14:46:29;3.10;;;2.80;;
36423;SDS011;22458;45.328;9.514;2023-04-22T14:48:55;3.85;;;3.45;;
36423;SDS011;22458;45.328;9.514;2023-04-22T14:51:20;3.40;;;2.85;;
36423;SDS011;22458;45.328;9.514;2023-04-22T14:53:46;3.75;;;3.17;;
36423;SDS011;22458;45.328;9.514;2023-04-22T14:56:12;4.57;;;3.47;;
36423;SDS011;22458;45.328;9.514;2023-04-22T14:58:38;3.78;;;3.38;;
36423;SDS011;22458;45.328;9.514;2023-04-22T15:01:04;5.38;;;3.75;;